sensor_id;sensor_type;location;lat;lon;timestamp;P1;durP1;ratioP1;P2;durP2;ratioP2
17858;SDS011;35426;30.698;104.050;2023-04-01T00:00:12;101.80;;;49.37;;
17858;SDS011;35426;30.698;104.050;2023-04-01T00:02:48;98.83;;;48.20;;
17858;SDS011;35426;30.698;104.050;2023-04-01T00:05:34;97.67;;;49.50;;
17858;SDS011;35426;30.698;104.050;2023-04-01T00:08:13;103.53;;;51.57;;
17858;SDS011;35426;30.698;104.050;2023-04-01T00:10:54;108.77;;;51.57;;
17858;SDS011;35426;30.698;104.050;2023-04-01T00:13:29;93.27;;;49.63;;
17858;SDS011;35426;30.698;104.050;2023-04-01T00:16:06;94.43;;;49.90;;
17858;SDS011;35426;30.698;104.050;2023-04-01T00:18:50;98.30;;;50.17;;
17858;SDS011;35426;30.698;104.050;2023-04-01T00:21:24;114.27;;;52.43;;
17858;SDS011;35426;30.698;104.050;2023-04-01T00:24:03;99.83;;;49.50;;
17858;SDS011;35426;30.698;104.050;2023-04-01T00:26:45;97.27;;;51.07;;
17858;SDS011;35426;30.698;104.050;2023-04-01T00:29:20;111.80;;;52.07;;
17858;SDS011;35426;30.698;104.050;2023-04-01T00:32:00;103.00;;;50.47;;
17858;SDS011;35426;30.698;104.050;2023-04-01T00:34:35;101.33;;;51.17;;
17858;SDS011;35426;30.698;104.050;2023-04-01T00:37:12;111.00;;;51.90;;
17858;SDS011;35426;30.698;104.050;2023-04-01T00:39:50;105.70;;;50.03;;
17858;SDS011;35426;30.698;104.050;2023-04-01T00:42:30;104.83;;;50.73;;
17858;SDS011;35426;30.698;104.050;2023-04-01T00:48:03;98.43;;;50.30;;
17858;SDS011;35426;30.698;104.050;2023-04-01T00:50:46;103.70;;;50.47;;
17858;SDS011;35426;30.698;104.050;2023-04-01T00:53:28;105.10;;;50.20;;
17858;SDS011;35426;30.698;104.050;2023-04-01T00:56:05;92.33;;;48.10;;
17858;SDS011;35426;30.698;104.050;2023-04-01T00:58:46;100.43;;;50.20;;
17858;SDS011;35426;30.698;104.050;2023-04-01T01:01:25;105.70;;;51.43;;
17858;SDS011;35426;30.698;104.050;2023-04-01T01:04:05;96.17;;;49.10;;
17858;SDS011;35426;30.698;104.050;2023-04-01T01:07:07;92.80;;;47.97;;
17858;SDS011;35426;30.698;104.050;2023-04-01T01:09:51;106.23;;;52.07;;
17858;SDS011;35426;30.698;104.050;2023-04-01T01:12:44;101.83;;;51.03;;
17858;SDS011;35426;30.698;104.050;2023-04-01T01:15:36;99.80;;;50.27;;
17858;SDS011;35426;30.698;104.050;2023-04-01T01:18:26;106.57;;;52.03;;
17858;SDS011;35426;30.698;104.050;2023-04-01T01:27:56;88.73;;;49.17;;
17858;SDS011;35426;30.698;104.050;2023-04-01T01:30:41;82.53;;;47.47;;
17858;SDS011;35426;30.698;104.050;2023-04-01T01:36:48;84.63;;;47.50;;
17858;SDS011;35426;30.698;104.050;2023-04-01T01:39:38;89.40;;;47.43;;
17858;SDS011;35426;30.698;104.050;2023-04-01T01:42:21;87.60;;;48.53;;
17858;SDS011;35426;30.698;104.050;2023-04-01T01:45:02;84.63;;;49.17;;
17858;SDS011;35426;30.698;104.050;2023-04-01T01:47:43;86.90;;;48.07;;
17858;SDS011;35426;30.698;104.050;2023-04-01T01:50:29;88.00;;;48.83;;
17858;SDS011;35426;30.698;104.050;2023-04-01T01:53:19;91.50;;;48.93;;
17858;SDS011;35426;30.698;104.050;2023-04-01T01:56:15;81.97;;;48.73;;
17858;SDS011;35426;30.698;104.050;2023-04-01T01:58:55;90.00;;;49.30;;
17858;SDS011;35426;30.698;104.050;2023-04-01T02:01:39;81.20;;;47.00;;
17858;SDS011;35426;30.698;104.050;2023-04-01T02:04:16;88.63;;;46.37;;
17858;SDS011;35426;30.698;104.050;2023-04-01T02:06:59;81.37;;;46.13;;
17858;SDS011;35426;30.698;104.050;2023-04-01T02:09:37;84.00;;;45.77;;
17858;SDS011;35426;30.698;104.050;2023-04-01T02:12:14;80.13;;;44.70;;
17858;SDS011;35426;30.698;104.050;2023-04-01T02:14:59;82.00;;;45.27;;
17858;SDS011;35426;30.698;104.050;2023-04-01T02:17:48;79.50;;;45.13;;
17858;SDS011;35426;30.698;104.050;2023-04-01T02:20:28;73.87;;;44.13;;
17858;SDS011;35426;30.698;104.050;2023-04-01T02:23:07;73.03;;;44.07;;
17858;SDS011;35426;30.698;104.050;2023-04-01T02:25:47;78.83;;;45.40;;
17858;SDS011;35426;30.698;104.050;2023-04-01T02:28:25;79.37;;;45.30;;
17858;SDS011;35426;30.698;104.050;2023-04-01T02:31:04;78.90;;;45.60;;
17858;SDS011;35426;30.698;104.050;2023-04-01T02:33:42;76.93;;;44.63;;
17858;SDS011;35426;30.698;104.050;2023-04-01T02:36:34;78.43;;;45.13;;
17858;SDS011;35426;30.698;104.050;2023-04-01T02:39:21;81.83;;;47.67;;
17858;SDS011;35426;30.698;104.050;2023-04-01T02:42:09;82.77;;;48.80;;
17858;SDS011;35426;30.698;104.050;2023-04-01T02:44:57;82.33;;;47.67;;
17858;SDS011;35426;30.698;104.050;2023-04-01T02:47:47;69.97;;;42.53;;
17858;SDS011;35426;30.698;104.050;2023-04-01T02:50:22;74.40;;;42.47;;
17858;SDS011;35426;30.698;104.050;2023-04-01T02:53:27;74.03;;;43.37;;
17858;SDS011;35426;30.698;104.050;2023-04-01T02:56:06;71.47;;;40.50;;
17858;SDS011;35426;30.698;104.050;2023-04-01T02:58:51;73.63;;;39.30;;
17858;SDS011;35426;30.698;104.050;2023-04-01T03:01:31;74.67;;;41.03;;
17858;SDS011;35426;30.698;104.050;2023-04-01T03:04:13;84.53;;;44.03;;
17858;SDS011;35426;30.698;104.050;2023-04-01T03:07:02;72.20;;;42.30;;
17858;SDS011;35426;30.698;104.050;2023-04-01T03:09:45;82.57;;;46.63;;
17858;SDS011;35426;30.698;104.050;2023-04-01T03:12:26;79.70;;;44.83;;
17858;SDS011;35426;30.698;104.050;2023-04-01T03:15:27;81.73;;;46.67;;
17858;SDS011;35426;30.698;104.050;2023-04-01T03:18:19;90.17;;;45.13;;
17858;SDS011;35426;30.698;104.050;2023-04-01T03:21:11;81.75;;;45.88;;
17858;SDS011;35426;30.698;104.050;2023-04-01T03:23:55;80.73;;;46.27;;
17858;SDS011;35426;30.698;104.050;2023-04-01T03:26:32;84.68;;;46.05;;
17858;SDS011;35426;30.698;104.050;2023-04-01T03:29:09;74.60;;;46.37;;
17858;SDS011;35426;30.698;104.050;2023-04-01T03:32:00;95.87;;;51.43;;
17858;SDS011;35426;30.698;104.050;2023-04-01T03:34:41;80.07;;;45.87;;
17858;SDS011;35426;30.698;104.050;2023-04-01T03:37:20;83.13;;;47.57;;
17858;SDS011;35426;30.698;104.050;2023-04-01T03:40:05;86.47;;;47.57;;
17858;SDS011;35426;30.698;104.050;2023-04-01T03:42:44;77.83;;;43.73;;
17858;SDS011;35426;30.698;104.050;2023-04-01T03:45:27;81.37;;;45.83;;
17858;SDS011;35426;30.698;104.050;2023-04-01T03:48:10;79.50;;;46.07;;
17858;SDS011;35426;30.698;104.050;2023-04-01T03:50:49;79.67;;;44.07;;
17858;SDS011;35426;30.698;104.050;2023-04-01T03:53:27;80.93;;;45.97;;
17858;SDS011;35426;30.698;104.050;2023-04-01T03:56:18;77.07;;;46.83;;
17858;SDS011;35426;30.698;104.050;2023-04-01T03:59:01;82.90;;;47.47;;
17858;SDS011;35426;30.698;104.050;2023-04-01T04:01:47;80.70;;;45.63;;
17858;SDS011;35426;30.698;104.050;2023-04-01T04:04:33;76.27;;;44.17;;
17858;SDS011;35426;30.698;104.050;2023-04-01T04:07:10;79.93;;;43.60;;
17858;SDS011;35426;30.698;104.050;2023-04-01T04:10:11;69.17;;;41.97;;
17858;SDS011;35426;30.698;104.050;2023-04-01T04:12:49;82.20;;;45.50;;
17858;SDS011;35426;30.698;104.050;2023-04-01T04:15:31;81.97;;;44.97;;
17858;SDS011;35426;30.698;104.050;2023-04-01T04:18:07;72.67;;;40.77;;
17858;SDS011;35426;30.698;104.050;2023-04-01T04:20:47;73.07;;;43.30;;
17858;SDS011;35426;30.698;104.050;2023-04-01T04:23:35;80.00;;;45.20;;
17858;SDS011;35426;30.698;104.050;2023-04-01T04:26:23;77.80;;;43.47;;
17858;SDS011;35426;30.698;104.050;2023-04-01T04:29:11;73.57;;;41.53;;
17858;SDS011;35426;30.698;104.050;2023-04-01T04:32:02;73.03;;;41.57;;
17858;SDS011;35426;30.698;104.050;2023-04-01T04:34:47;68.87;;;40.37;;
17858;SDS011;35426;30.698;104.050;2023-04-01T04:37:43;75.87;;;40.73;;
17858;SDS011;35426;30.698;104.050;2023-04-01T04:40:27;66.63;;;41.30;;
17858;SDS011;35426;30.698;104.050;2023-04-01T04:43:15;63.80;;;40.60;;
17858;SDS011;35426;30.698;104.050;2023-04-01T04:45:53;82.33;;;46.40;;
17858;SDS011;35426;30.698;104.050;2023-04-01T04:48:34;73.80;;;39.23;;
17858;SDS011;35426;30.698;104.050;2023-04-01T04:51:14;73.90;;;38.63;;
17858;SDS011;35426;30.698;104.050;2023-04-01T04:53:56;67.70;;;37.80;;
17858;SDS011;35426;30.698;104.050;2023-04-01T04:56:53;67.87;;;38.40;;
17858;SDS011;35426;30.698;104.050;2023-04-01T04:59:53;70.53;;;39.20;;
17858;SDS011;35426;30.698;104.050;2023-04-01T05:02:48;70.03;;;36.83;;
17858;SDS011;35426;30.698;104.050;2023-04-01T05:05:26;67.63;;;37.70;;
17858;SDS011;35426;30.698;104.050;2023-04-01T05:08:06;70.07;;;39.13;;
17858;SDS011;35426;30.698;104.050;2023-04-01T05:11:06;64.30;;;38.83;;
17858;SDS011;35426;30.698;104.050;2023-04-01T05:13:47;68.07;;;40.07;;
17858;SDS011;35426;30.698;104.050;2023-04-01T05:16:28;66.33;;;37.40;;
17858;SDS011;35426;30.698;104.050;2023-04-01T05:19:11;58.97;;;35.60;;
17858;SDS011;35426;30.698;104.050;2023-04-01T05:21:50;59.37;;;36.63;;
17858;SDS011;35426;30.698;104.050;2023-04-01T05:24:34;58.23;;;36.50;;
17858;SDS011;35426;30.698;104.050;2023-04-01T05:27:26;63.90;;;39.33;;
17858;SDS011;35426;30.698;104.050;2023-04-01T05:30:13;74.10;;;40.53;;
17858;SDS011;35426;30.698;104.050;2023-04-01T05:33:10;70.57;;;39.37;;
17858;SDS011;35426;30.698;104.050;2023-04-01T05:35:52;65.57;;;40.37;;
17858;SDS011;35426;30.698;104.050;2023-04-01T05:38:37;72.23;;;40.33;;
17858;SDS011;35426;30.698;104.050;2023-04-01T05:41:19;70.57;;;38.63;;
17858;SDS011;35426;30.698;104.050;2023-04-01T05:44:06;72.17;;;42.20;;
17858;SDS011;35426;30.698;104.050;2023-04-01T05:46:50;70.27;;;38.33;;
17858;SDS011;35426;30.698;104.050;2023-04-01T05:49:38;62.40;;;38.53;;
17858;SDS011;35426;30.698;104.050;2023-04-01T05:52:17;64.87;;;37.43;;
17858;SDS011;35426;30.698;104.050;2023-04-01T05:55:12;69.97;;;40.03;;
17858;SDS011;35426;30.698;104.050;2023-04-01T05:58:05;64.20;;;38.43;;
17858;SDS011;35426;30.698;104.050;2023-04-01T06:03:56;65.37;;;35.73;;
17858;SDS011;35426;30.698;104.050;2023-04-01T06:06:38;64.17;;;37.70;;
17858;SDS011;35426;30.698;104.050;2023-04-01T06:09:35;59.73;;;36.80;;
17858;SDS011;35426;30.698;104.050;2023-04-01T06:12:38;65.13;;;36.73;;
17858;SDS011;35426;30.698;104.050;2023-04-01T06:15:36;64.67;;;36.30;;
17858;SDS011;35426;30.698;104.050;2023-04-01T06:21:39;57.17;;;33.93;;
17858;SDS011;35426;30.698;104.050;2023-04-01T06:25:04;59.70;;;34.30;;
17858;SDS011;35426;30.698;104.050;2023-04-01T06:27:54;55.10;;;31.20;;
17858;SDS011;35426;30.698;104.050;2023-04-01T06:30:41;61.03;;;35.40;;
17858;SDS011;35426;30.698;104.050;2023-04-01T06:33:36;63.07;;;34.53;;
17858;SDS011;35426;30.698;104.050;2023-04-01T06:36:42;63.57;;;35.27;;
17858;SDS011;35426;30.698;104.050;2023-04-01T06:39:40;58.77;;;33.60;;
17858;SDS011;35426;30.698;104.050;2023-04-01T06:42:49;60.23;;;36.57;;
17858;SDS011;35426;30.698;104.050;2023-04-01T06:46:02;55.37;;;35.17;;
17858;SDS011;35426;30.698;104.050;2023-04-01T06:49:24;62.53;;;33.93;;
17858;SDS011;35426;30.698;104.050;2023-04-01T06:52:29;58.27;;;34.00;;
17858;SDS011;35426;30.698;104.050;2023-04-01T06:55:41;55.83;;;34.20;;
17858;SDS011;35426;30.698;104.050;2023-04-01T06:58:46;61.53;;;35.43;;
17858;SDS011;35426;30.698;104.050;2023-04-01T07:01:32;59.73;;;34.07;;
17858;SDS011;35426;30.698;104.050;2023-04-01T07:04:13;60.10;;;32.77;;
17858;SDS011;35426;30.698;104.050;2023-04-01T07:06:56;54.57;;;31.73;;
17858;SDS011;35426;30.698;104.050;2023-04-01T07:09:57;52.40;;;30.43;;
17858;SDS011;35426;30.698;104.050;2023-04-01T07:13:02;58.90;;;34.47;;
17858;SDS011;35426;30.698;104.050;2023-04-01T07:16:12;63.10;;;36.10;;
17858;SDS011;35426;30.698;104.050;2023-04-01T07:18:52;60.77;;;34.97;;
17858;SDS011;35426;30.698;104.050;2023-04-01T07:22:00;58.83;;;35.80;;
17858;SDS011;35426;30.698;104.050;2023-04-01T07:25:13;57.10;;;33.13;;
17858;SDS011;35426;30.698;104.050;2023-04-01T07:28:40;58.77;;;34.40;;
17858;SDS011;35426;30.698;104.050;2023-04-01T07:31:33;59.83;;;35.67;;
17858;SDS011;35426;30.698;104.050;2023-04-01T07:34:49;59.50;;;36.73;;
17858;SDS011;35426;30.698;104.050;2023-04-01T07:37:42;58.03;;;35.43;;
17858;SDS011;35426;30.698;104.050;2023-04-01T07:40:39;63.93;;;36.50;;
17858;SDS011;35426;30.698;104.050;2023-04-01T07:43:54;63.73;;;36.40;;
17858;SDS011;35426;30.698;104.050;2023-04-01T07:46:51;72.83;;;36.47;;
17858;SDS011;35426;30.698;104.050;2023-04-01T07:50:01;62.30;;;35.77;;
17858;SDS011;35426;30.698;104.050;2023-04-01T07:52:53;66.53;;;36.60;;
17858;SDS011;35426;30.698;104.050;2023-04-01T07:55:43;62.13;;;34.27;;
17858;SDS011;35426;30.698;104.050;2023-04-01T07:58:28;55.80;;;32.07;;
17858;SDS011;35426;30.698;104.050;2023-04-01T08:01:33;54.97;;;31.93;;
17858;SDS011;35426;30.698;104.050;2023-04-01T08:04:26;55.33;;;32.63;;
17858;SDS011;35426;30.698;104.050;2023-04-01T08:07:40;52.13;;;30.83;;
17858;SDS011;35426;30.698;104.050;2023-04-01T08:10:54;54.87;;;30.80;;
17858;SDS011;35426;30.698;104.050;2023-04-01T08:13:59;60.03;;;29.57;;
17858;SDS011;35426;30.698;104.050;2023-04-01T08:17:10;53.77;;;31.63;;
17858;SDS011;35426;30.698;104.050;2023-04-01T08:19:59;55.47;;;31.10;;
17858;SDS011;35426;30.698;104.050;2023-04-01T08:22:50;51.50;;;30.30;;
17858;SDS011;35426;30.698;104.050;2023-04-01T08:25:44;72.40;;;31.87;;
17858;SDS011;35426;30.698;104.050;2023-04-01T08:28:46;49.17;;;30.43;;
17858;SDS011;35426;30.698;104.050;2023-04-01T08:31:37;54.80;;;31.50;;
17858;SDS011;35426;30.698;104.050;2023-04-01T08:34:25;51.50;;;30.90;;
17858;SDS011;35426;30.698;104.050;2023-04-01T08:37:30;54.90;;;31.80;;
17858;SDS011;35426;30.698;104.050;2023-04-01T08:40:14;54.43;;;30.97;;
17858;SDS011;35426;30.698;104.050;2023-04-01T08:43:38;51.47;;;29.30;;
17858;SDS011;35426;30.698;104.050;2023-04-01T08:46:57;53.50;;;31.60;;
17858;SDS011;35426;30.698;104.050;2023-04-01T08:49:56;56.67;;;32.23;;
17858;SDS011;35426;30.698;104.050;2023-04-01T08:53:27;50.20;;;30.10;;
17858;SDS011;35426;30.698;104.050;2023-04-01T08:56:29;55.30;;;30.97;;
17858;SDS011;35426;30.698;104.050;2023-04-01T08:59:25;46.83;;;29.80;;
17858;SDS011;35426;30.698;104.050;2023-04-01T09:02:58;50.03;;;28.73;;
17858;SDS011;35426;30.698;104.050;2023-04-01T09:09:20;59.33;;;31.40;;
17858;SDS011;35426;30.698;104.050;2023-04-01T09:12:29;60.90;;;31.50;;
17858;SDS011;35426;30.698;104.050;2023-04-01T09:15:24;53.97;;;31.27;;
17858;SDS011;35426;30.698;104.050;2023-04-01T09:18:39;51.07;;;30.67;;
17858;SDS011;35426;30.698;104.050;2023-04-01T09:21:44;54.07;;;29.47;;
17858;SDS011;35426;30.698;104.050;2023-04-01T09:24:48;49.33;;;29.40;;
17858;SDS011;35426;30.698;104.050;2023-04-01T09:27:36;51.17;;;30.13;;
17858;SDS011;35426;30.698;104.050;2023-04-01T09:37:19;54.97;;;29.93;;
17858;SDS011;35426;30.698;104.050;2023-04-01T09:40:23;52.73;;;30.07;;
17858;SDS011;35426;30.698;104.050;2023-04-01T09:44:00;45.70;;;26.47;;
17858;SDS011;35426;30.698;104.050;2023-04-01T09:47:16;52.17;;;28.90;;
17858;SDS011;35426;30.698;104.050;2023-04-01T09:50:24;51.23;;;29.93;;
17858;SDS011;35426;30.698;104.050;2023-04-01T09:53:14;53.13;;;29.93;;
17858;SDS011;35426;30.698;104.050;2023-04-01T10:10:02;50.77;;;28.97;;
17858;SDS011;35426;30.698;104.050;2023-04-01T10:13:26;49.30;;;29.00;;
17858;SDS011;35426;30.698;104.050;2023-04-01T10:16:34;49.97;;;29.13;;
17858;SDS011;35426;30.698;104.050;2023-04-01T10:27:03;50.57;;;28.33;;
17858;SDS011;35426;30.698;104.050;2023-04-01T10:30:06;47.77;;;28.27;;
17858;SDS011;35426;30.698;104.050;2023-04-01T10:33:30;55.20;;;29.73;;
17858;SDS011;35426;30.698;104.050;2023-04-01T10:36:44;43.33;;;27.53;;
17858;SDS011;35426;30.698;104.050;2023-04-01T10:43:49;47.23;;;28.40;;
17858;SDS011;35426;30.698;104.050;2023-04-01T10:53:30;95.57;;;53.97;;
17858;SDS011;35426;30.698;104.050;2023-04-01T10:57:18;102.50;;;56.27;;
17858;SDS011;35426;30.698;104.050;2023-04-01T11:00:48;94.63;;;53.03;;
17858;SDS011;35426;30.698;104.050;2023-04-01T11:04:16;91.67;;;53.07;;
17858;SDS011;35426;30.698;104.050;2023-04-01T11:11:42;94.90;;;50.67;;
17858;SDS011;35426;30.698;104.050;2023-04-01T11:21:06;97.80;;;50.77;;
17858;SDS011;35426;30.698;104.050;2023-04-01T11:28:23;121.00;;;59.70;;
17858;SDS011;35426;30.698;104.050;2023-04-01T11:31:47;113.13;;;55.70;;
17858;SDS011;35426;30.698;104.050;2023-04-01T11:38:44;105.53;;;54.53;;
17858;SDS011;35426;30.698;104.050;2023-04-01T11:42:14;108.07;;;52.97;;
17858;SDS011;35426;30.698;104.050;2023-04-01T11:45:25;103.23;;;53.63;;
17858;SDS011;35426;30.698;104.050;2023-04-01T11:48:24;94.87;;;51.60;;
17858;SDS011;35426;30.698;104.050;2023-04-01T11:57:49;102.20;;;52.60;;
17858;SDS011;35426;30.698;104.050;2023-04-01T12:00:57;103.07;;;53.43;;
17858;SDS011;35426;30.698;104.050;2023-04-01T12:04:29;105.60;;;51.17;;
17858;SDS011;35426;30.698;104.050;2023-04-01T12:07:31;101.30;;;52.43;;
17858;SDS011;35426;30.698;104.050;2023-04-01T12:10:53;110.57;;;54.27;;
17858;SDS011;35426;30.698;104.050;2023-04-01T12:13:49;115.77;;;53.97;;
17858;SDS011;35426;30.698;104.050;2023-04-01T12:16:44;117.33;;;57.37;;
17858;SDS011;35426;30.698;104.050;2023-04-01T12:19:46;105.90;;;55.57;;
17858;SDS011;35426;30.698;104.050;2023-04-01T12:22:36;111.53;;;57.70;;
17858;SDS011;35426;30.698;104.050;2023-04-01T12:25:28;104.53;;;55.63;;
17858;SDS011;35426;30.698;104.050;2023-04-01T12:28:44;126.20;;;62.17;;
17858;SDS011;35426;30.698;104.050;2023-04-01T12:31:33;123.23;;;60.57;;
17858;SDS011;35426;30.698;104.050;2023-04-01T12:34:38;118.43;;;58.97;;
17858;SDS011;35426;30.698;104.050;2023-04-01T12:37:41;125.90;;;64.67;;
17858;SDS011;35426;30.698;104.050;2023-04-01T12:50:24;135.17;;;71.13;;
17858;SDS011;35426;30.698;104.050;2023-04-01T12:53:19;139.97;;;75.83;;
17858;SDS011;35426;30.698;104.050;2023-04-01T12:56:10;154.77;;;78.97;;
17858;SDS011;35426;30.698;104.050;2023-04-01T12:59:40;151.93;;;76.87;;
17858;SDS011;35426;30.698;104.050;2023-04-01T13:02:31;130.57;;;71.70;;
17858;SDS011;35426;30.698;104.050;2023-04-01T13:05:36;148.53;;;78.50;;
17858;SDS011;35426;30.698;104.050;2023-04-01T13:08:39;163.63;;;82.03;;
17858;SDS011;35426;30.698;104.050;2023-04-01T13:11:32;157.47;;;82.00;;
17858;SDS011;35426;30.698;104.050;2023-04-01T13:14:33;175.17;;;88.53;;
17858;SDS011;35426;30.698;104.050;2023-04-01T13:17:49;180.53;;;86.73;;
17858;SDS011;35426;30.698;104.050;2023-04-01T13:20:43;172.90;;;86.70;;
17858;SDS011;35426;30.698;104.050;2023-04-01T13:23:48;171.47;;;88.10;;
17858;SDS011;35426;30.698;104.050;2023-04-01T13:26:50;172.53;;;88.73;;
17858;SDS011;35426;30.698;104.050;2023-04-01T13:29:50;174.00;;;89.97;;
17858;SDS011;35426;30.698;104.050;2023-04-01T13:32:39;164.43;;;86.67;;
17858;SDS011;35426;30.698;104.050;2023-04-01T13:35:29;179.00;;;87.97;;
17858;SDS011;35426;30.698;104.050;2023-04-01T13:41:40;169.13;;;87.97;;
17858;SDS011;35426;30.698;104.050;2023-04-01T13:44:37;175.57;;;91.37;;
17858;SDS011;35426;30.698;104.050;2023-04-01T13:47:47;181.73;;;92.27;;
17858;SDS011;35426;30.698;104.050;2023-04-01T13:51:09;172.50;;;89.27;;
17858;SDS011;35426;30.698;104.050;2023-04-01T13:54:16;161.07;;;83.90;;
17858;SDS011;35426;30.698;104.050;2023-04-01T13:57:35;172.50;;;88.63;;
17858;SDS011;35426;30.698;104.050;2023-04-01T14:01:06;176.23;;;88.53;;
17858;SDS011;35426;30.698;104.050;2023-04-01T14:07:10;164.40;;;85.43;;
17858;SDS011;35426;30.698;104.050;2023-04-01T14:10:20;169.03;;;86.73;;
17858;SDS011;35426;30.698;104.050;2023-04-01T14:13:28;166.50;;;86.37;;
17858;SDS011;35426;30.698;104.050;2023-04-01T14:16:25;154.37;;;81.80;;
17858;SDS011;35426;30.698;104.050;2023-04-01T14:27:49;159.17;;;82.07;;
17858;SDS011;35426;30.698;104.050;2023-04-01T14:31:04;152.17;;;80.07;;
17858;SDS011;35426;30.698;104.050;2023-04-01T14:34:03;167.37;;;82.43;;
17858;SDS011;35426;30.698;104.050;2023-04-01T14:40:27;160.90;;;81.30;;
17858;SDS011;35426;30.698;104.050;2023-04-01T14:43:41;150.60;;;76.23;;
17858;SDS011;35426;30.698;104.050;2023-04-01T14:50:03;154.63;;;75.37;;
17858;SDS011;35426;30.698;104.050;2023-04-01T14:53:11;154.90;;;81.77;;
17858;SDS011;35426;30.698;104.050;2023-04-01T14:56:08;151.20;;;76.27;;
17858;SDS011;35426;30.698;104.050;2023-04-01T14:58:57;154.37;;;76.00;;
17858;SDS011;35426;30.698;104.050;2023-04-01T15:01:44;146.40;;;75.17;;
17858;SDS011;35426;30.698;104.050;2023-04-01T15:14:37;140.00;;;73.60;;
17858;SDS011;35426;30.698;104.050;2023-04-01T15:17:34;147.13;;;74.20;;
17858;SDS011;35426;30.698;104.050;2023-04-01T15:23:49;146.00;;;74.37;;
17858;SDS011;35426;30.698;104.050;2023-04-01T15:26:53;144.43;;;75.40;;
17858;SDS011;35426;30.698;104.050;2023-04-01T15:36:38;154.63;;;76.30;;
17858;SDS011;35426;30.698;104.050;2023-04-01T15:39:38;147.33;;;76.30;;
17858;SDS011;35426;30.698;104.050;2023-04-01T15:42:43;165.43;;;76.80;;
17858;SDS011;35426;30.698;104.050;2023-04-01T15:45:38;143.47;;;75.17;;
17858;SDS011;35426;30.698;104.050;2023-04-01T15:48:35;148.73;;;77.00;;
17858;SDS011;35426;30.698;104.050;2023-04-01T15:51:32;155.43;;;77.37;;
17858;SDS011;35426;30.698;104.050;2023-04-01T15:57:52;152.57;;;79.37;;
17858;SDS011;35426;30.698;104.050;2023-04-01T16:01:24;152.47;;;77.43;;
17858;SDS011;35426;30.698;104.050;2023-04-01T16:07:21;154.87;;;76.97;;
17858;SDS011;35426;30.698;104.050;2023-04-01T16:10:23;151.00;;;79.33;;
17858;SDS011;35426;30.698;104.050;2023-04-01T16:16:34;153.77;;;79.23;;
17858;SDS011;35426;30.698;104.050;2023-04-01T16:19:41;137.53;;;72.40;;
17858;SDS011;35426;30.698;104.050;2023-04-01T16:22:37;141.03;;;73.17;;
17858;SDS011;35426;30.698;104.050;2023-04-01T16:25:26;150.30;;;75.87;;
17858;SDS011;35426;30.698;104.050;2023-04-01T16:28:16;145.83;;;76.90;;
17858;SDS011;35426;30.698;104.050;2023-04-01T16:30:59;157.20;;;77.73;;
17858;SDS011;35426;30.698;104.050;2023-04-01T16:33:43;158.37;;;74.03;;
17858;SDS011;35426;30.698;104.050;2023-04-01T16:36:27;145.53;;;74.00;;
17858;SDS011;35426;30.698;104.050;2023-04-01T16:39:25;146.90;;;76.80;;
17858;SDS011;35426;30.698;104.050;2023-04-01T16:42:22;145.17;;;75.40;;
17858;SDS011;35426;30.698;104.050;2023-04-01T16:45:21;150.10;;;76.03;;
17858;SDS011;35426;30.698;104.050;2023-04-01T16:48:06;155.90;;;73.30;;
17858;SDS011;35426;30.698;104.050;2023-04-01T16:50:58;143.60;;;74.83;;
17858;SDS011;35426;30.698;104.050;2023-04-01T16:53:45;140.63;;;74.97;;
17858;SDS011;35426;30.698;104.050;2023-04-01T16:56:39;146.67;;;78.33;;
17858;SDS011;35426;30.698;104.050;2023-04-01T16:59:21;151.67;;;79.83;;
17858;SDS011;35426;30.698;104.050;2023-04-01T17:02:13;147.87;;;74.93;;
17858;SDS011;35426;30.698;104.050;2023-04-01T17:04:57;143.97;;;77.20;;
17858;SDS011;35426;30.698;104.050;2023-04-01T17:07:47;153.60;;;76.40;;
17858;SDS011;35426;30.698;104.050;2023-04-01T17:10:40;139.10;;;71.20;;
17858;SDS011;35426;30.698;104.050;2023-04-01T17:13:35;141.07;;;70.20;;
17858;SDS011;35426;30.698;104.050;2023-04-01T17:16:41;144.33;;;73.87;;
17858;SDS011;35426;30.698;104.050;2023-04-01T17:22:55;136.53;;;70.60;;
17858;SDS011;35426;30.698;104.050;2023-04-01T17:25:42;140.83;;;74.20;;
17858;SDS011;35426;30.698;104.050;2023-04-01T17:28:50;153.63;;;81.17;;
17858;SDS011;35426;30.698;104.050;2023-04-01T17:31:43;151.83;;;75.57;;
17858;SDS011;35426;30.698;104.050;2023-04-01T17:34:35;151.97;;;80.43;;
17858;SDS011;35426;30.698;104.050;2023-04-01T17:37:23;146.73;;;78.23;;
17858;SDS011;35426;30.698;104.050;2023-04-01T17:40:17;156.03;;;79.00;;
17858;SDS011;35426;30.698;104.050;2023-04-01T17:43:07;149.03;;;77.17;;
17858;SDS011;35426;30.698;104.050;2023-04-01T17:45:49;160.80;;;81.10;;
17858;SDS011;35426;30.698;104.050;2023-04-01T17:48:32;147.60;;;81.40;;
17858;SDS011;35426;30.698;104.050;2023-04-01T17:51:19;158.77;;;82.57;;
17858;SDS011;35426;30.698;104.050;2023-04-01T17:54:05;157.83;;;83.73;;
17858;SDS011;35426;30.698;104.050;2023-04-01T17:56:58;164.70;;;84.67;;
17858;SDS011;35426;30.698;104.050;2023-04-01T17:59:54;151.77;;;79.70;;
17858;SDS011;35426;30.698;104.050;2023-04-01T18:02:41;149.07;;;78.73;;
17858;SDS011;35426;30.698;104.050;2023-04-01T18:05:25;151.30;;;77.57;;
17858;SDS011;35426;30.698;104.050;2023-04-01T18:08:13;161.83;;;83.10;;
17858;SDS011;35426;30.698;104.050;2023-04-01T18:10:57;159.47;;;80.03;;
17858;SDS011;35426;30.698;104.050;2023-04-01T18:13:52;162.27;;;80.17;;
17858;SDS011;35426;30.698;104.050;2023-04-01T18:16:51;167.10;;;83.57;;
17858;SDS011;35426;30.698;104.050;2023-04-01T18:19:39;161.83;;;81.57;;
17858;SDS011;35426;30.698;104.050;2023-04-01T18:22:21;164.50;;;83.57;;
17858;SDS011;35426;30.698;104.050;2023-04-01T18:25:04;156.67;;;80.90;;
17858;SDS011;35426;30.698;104.050;2023-04-01T18:27:51;151.17;;;76.50;;
17858;SDS011;35426;30.698;104.050;2023-04-01T18:30:29;155.43;;;79.10;;
17858;SDS011;35426;30.698;104.050;2023-04-01T18:33:15;143.60;;;76.23;;
17858;SDS011;35426;30.698;104.050;2023-04-01T18:35:55;162.97;;;81.60;;
17858;SDS011;35426;30.698;104.050;2023-04-01T18:38:40;155.30;;;76.33;;
17858;SDS011;35426;30.698;104.050;2023-04-01T18:41:30;147.57;;;77.97;;
17858;SDS011;35426;30.698;104.050;2023-04-01T18:44:18;153.97;;;78.43;;
17858;SDS011;35426;30.698;104.050;2023-04-01T18:47:13;154.40;;;79.83;;
17858;SDS011;35426;30.698;104.050;2023-04-01T18:49:59;152.57;;;78.20;;
17858;SDS011;35426;30.698;104.050;2023-04-01T18:52:45;153.93;;;79.83;;